sensor_id;sensor_type;location;lat;lon;timestamp;pressure;altitude;pressure_sealevel;temperature;humidity
78064;BME280;67429;51.596;-3.264;2023-02-11T00:02:16;101410.13;;;5.64;66.45
78064;BME280;67429;51.596;-3.264;2023-02-11T00:04:42;101411.29;;;5.79;64.97
78064;BME280;67429;51.596;-3.264;2023-02-11T00:07:08;101413.53;;;6.07;64.12
78064;BME280;67429;51.596;-3.264;2023-02-11T00:09:33;101409.19;;;6.04;65.29
78064;BME280;67429;51.596;-3.264;2023-02-11T00:11:59;101409.61;;;5.88;64.55
78064;BME280;67429;51.596;-3.264;2023-02-11T00:14:25;101410.17;;;5.60;65.00
78064;BME280;67429;51.596;-3.264;2023-02-11T00:16:51;101409.10;;;5.62;65.53
78064;BME280;67429;51.596;-3.264;2023-02-11T00:19:16;101408.03;;;5.46;66.34
78064;BME280;67429;51.596;-3.264;2023-02-11T00:21:42;101411.82;;;6.13;65.13
78064;BME280;67429;51.596;-3.264;2023-02-11T00:24:08;101409.01;;;5.68;65.01
78064;BME280;67429;51.596;-3.264;2023-02-11T00:26:34;101405.29;;;5.75;65.84
78064;BME280;67429;51.596;-3.264;2023-02-11T00:28:59;101401.97;;;5.40;66.71
78064;BME280;67429;51.596;-3.264;2023-02-11T00:31:25;101402.40;;;5.39;66.91
78064;BME280;67429;51.596;-3.264;2023-02-11T00:33:50;101401.29;;;5.35;65.81
78064;BME280;67429;51.596;-3.264;2023-02-11T00:36:17;101406.27;;;5.50;65.28
78064;BME280;67429;51.596;-3.264;2023-02-11T00:38:42;101402.47;;;5.47;65.11
78064;BME280;67429;51.596;-3.264;2023-02-11T00:41:07;101401.27;;;6.16;65.17
78064;BME280;67429;51.596;-3.264;2023-02-11T00:43:34;101403.20;;;6.15;63.67
78064;BME280;67429;51.596;-3.264;2023-02-11T00:45:59;101404.20;;;5.66;64.43
78064;BME280;67429;51.596;-3.264;2023-02-11T00:48:24;101407.91;;;5.54;64.72
78064;BME280;67429;51.596;-3.264;2023-02-11T00:50:50;101410.13;;;5.79;64.77
78064;BME280;67429;51.596;-3.264;2023-02-11T00:53:16;101414.12;;;6.00;63.38
78064;BME280;67429;51.596;-3.264;2023-02-11T00:55:41;101417.52;;;6.24;63.05
78064;BME280;67429;51.596;-3.264;2023-02-11T00:58:07;101415.79;;;6.03;63.63
78064;BME280;67429;51.596;-3.264;2023-02-11T01:00:33;101415.86;;;6.73;61.82
78064;BME280;67429;51.596;-3.264;2023-02-11T01:02:58;101417.70;;;6.06;63.61
78064;BME280;67429;51.596;-3.264;2023-02-11T01:05:24;101420.59;;;6.21;63.01
78064;BME280;67429;51.596;-3.264;2023-02-11T01:07:50;101417.90;;;6.07;62.50
78064;BME280;67429;51.596;-3.264;2023-02-11T01:10:16;101418.44;;;6.26;62.94
78064;BME280;67429;51.596;-3.264;2023-02-11T01:12:41;101418.28;;;5.72;63.84
78064;BME280;67429;51.596;-3.264;2023-02-11T01:15:08;101417.64;;;6.09;63.51
78064;BME280;67429;51.596;-3.264;2023-02-11T01:17:32;101412.45;;;5.82;63.60
78064;BME280;67429;51.596;-3.264;2023-02-11T01:19:58;101409.30;;;6.20;63.94
78064;BME280;67429;51.596;-3.264;2023-02-11T01:22:23;101398.34;;;5.86;64.57
78064;BME280;67429;51.596;-3.264;2023-02-11T01:24:49;101391.98;;;5.55;65.11
78064;BME280;67429;51.596;-3.264;2023-02-11T01:27:15;101387.89;;;6.06;63.40
78064;BME280;67429;51.596;-3.264;2023-02-11T01:29:40;101391.26;;;6.00;63.61
78064;BME280;67429;51.596;-3.264;2023-02-11T01:32:06;101390.58;;;5.99;63.87
78064;BME280;67429;51.596;-3.264;2023-02-11T01:34:32;101388.04;;;5.48;63.98
78064;BME280;67429;51.596;-3.264;2023-02-11T01:36:58;101387.43;;;5.62;63.68
78064;BME280;67429;51.596;-3.264;2023-02-11T01:39:23;101384.35;;;5.78;63.44
78064;BME280;67429;51.596;-3.264;2023-02-11T01:41:49;101377.74;;;5.86;63.92
78064;BME280;67429;51.596;-3.264;2023-02-11T01:44:22;101369.08;;;6.22;63.59
78064;BME280;67429;51.596;-3.264;2023-02-11T01:46:40;101369.78;;;5.96;64.05
78064;BME280;67429;51.596;-3.264;2023-02-11T01:49:09;101370.71;;;6.43;62.54
78064;BME280;67429;51.596;-3.264;2023-02-11T01:51:35;101373.45;;;6.38;62.14
78064;BME280;67429;51.596;-3.264;2023-02-11T01:53:57;101380.45;;;5.75;64.11
78064;BME280;67429;51.596;-3.264;2023-02-11T01:56:24;101385.25;;;6.08;64.03
78064;BME280;67429;51.596;-3.264;2023-02-11T01:58:50;101390.43;;;5.89;63.49
78064;BME280;67429;51.596;-3.264;2023-02-11T02:01:16;101392.37;;;5.78;63.72
78064;BME280;67429;51.596;-3.264;2023-02-11T02:03:42;101385.55;;;6.31;62.43
78064;BME280;67429;51.596;-3.264;2023-02-11T02:06:09;101384.91;;;5.61;64.48
78064;BME280;67429;51.596;-3.264;2023-02-11T02:08:36;101381.25;;;5.62;64.24
78064;BME280;67429;51.596;-3.264;2023-02-11T02:10:57;101384.02;;;6.44;62.25
78064;BME280;67429;51.596;-3.264;2023-02-11T02:13:23;101381.98;;;6.58;61.56
78064;BME280;67429;51.596;-3.264;2023-02-11T02:15:49;101383.12;;;6.31;61.13
78064;BME280;67429;51.596;-3.264;2023-02-11T02:18:24;101383.36;;;6.83;60.42
78064;BME280;67429;51.596;-3.264;2023-02-11T02:23:19;101392.60;;;5.79;63.15
78064;BME280;67429;51.596;-3.264;2023-02-11T02:25:46;101396.44;;;5.80;63.20
78064;BME280;67429;51.596;-3.264;2023-02-11T02:28:05;101393.46;;;5.66;64.00
78064;BME280;67429;51.596;-3.264;2023-02-11T02:30:42;101392.11;;;6.84;61.97
78064;BME280;67429;51.596;-3.264;2023-02-11T02:32:56;101383.59;;;7.36;59.34
78064;BME280;67429;51.596;-3.264;2023-02-11T02:35:23;101381.40;;;7.96;57.79
78064;BME280;67429;51.596;-3.264;2023-02-11T02:37:43;101375.05;;;7.20;58.06
78064;BME280;67429;51.596;-3.264;2023-02-11T02:40:10;101371.89;;;7.05;60.22
78064;BME280;67429;51.596;-3.264;2023-02-11T02:42:30;101377.33;;;6.82;60.68
78064;BME280;67429;51.596;-3.264;2023-02-11T02:44:56;101371.54;;;6.74;60.44
78064;BME280;67429;51.596;-3.264;2023-02-11T02:47:21;101369.94;;;6.36;61.37
78064;BME280;67429;51.596;-3.264;2023-02-11T02:49:47;101366.71;;;6.41;61.74
78064;BME280;67429;51.596;-3.264;2023-02-11T02:52:20;101366.92;;;6.45;61.10
78064;BME280;67429;51.596;-3.264;2023-02-11T02:54:56;101362.86;;;6.09;62.29
78064;BME280;67429;51.596;-3.264;2023-02-11T02:57:12;101357.42;;;6.56;60.79
78064;BME280;67429;51.596;-3.264;2023-02-11T02:59:40;101358.01;;;6.34;60.30
78064;BME280;67429;51.596;-3.264;2023-02-11T03:02:02;101359.46;;;6.12;61.86
78064;BME280;67429;51.596;-3.264;2023-02-11T03:04:24;101355.55;;;6.46;61.12
78064;BME280;67429;51.596;-3.264;2023-02-11T03:06:51;101358.13;;;5.86;62.45
78064;BME280;67429;51.596;-3.264;2023-02-11T03:09:15;101359.99;;;6.19;62.32
78064;BME280;67429;51.596;-3.264;2023-02-11T03:11:39;101359.28;;;6.04;62.84
78064;BME280;67429;51.596;-3.264;2023-02-11T03:14:08;101361.34;;;5.61;62.71
78064;BME280;67429;51.596;-3.264;2023-02-11T03:16:29;101360.13;;;6.26;61.20
78064;BME280;67429;51.596;-3.264;2023-02-11T03:18:58;101361.17;;;5.78;62.34
78064;BME280;67429;51.596;-3.264;2023-02-11T03:21:21;101355.48;;;6.03;61.67
78064;BME280;67429;51.596;-3.264;2023-02-11T03:23:50;101348.50;;;5.95;62.48
78064;BME280;67429;51.596;-3.264;2023-02-11T03:26:17;101341.87;;;5.84;60.84
78064;BME280;67429;51.596;-3.264;2023-02-11T03:28:43;101332.89;;;6.30;59.90
78064;BME280;67429;51.596;-3.264;2023-02-11T03:31:10;101336.12;;;5.98;61.69
78064;BME280;67429;51.596;-3.264;2023-02-11T03:33:33;101338.85;;;5.86;63.24
78064;BME280;67429;51.596;-3.264;2023-02-11T03:35:56;101332.90;;;5.89;62.70
78064;BME280;67429;51.596;-3.264;2023-02-11T03:38:21;101332.84;;;5.72;63.28
78064;BME280;67429;51.596;-3.264;2023-02-11T03:40:46;101329.03;;;5.82;63.86
78064;BME280;67429;51.596;-3.264;2023-02-11T03:43:15;101327.98;;;6.23;62.92
78064;BME280;67429;51.596;-3.264;2023-02-11T03:45:37;101331.56;;;5.50;64.71
78064;BME280;67429;51.596;-3.264;2023-02-11T03:48:05;101325.03;;;5.01;66.81
78064;BME280;67429;51.596;-3.264;2023-02-11T03:50:30;101330.07;;;5.28;65.94
78064;BME280;67429;51.596;-3.264;2023-02-11T03:52:54;101327.33;;;5.41;65.13
78064;BME280;67429;51.596;-3.264;2023-02-11T03:55:20;101320.92;;;5.20;66.67
78064;BME280;67429;51.596;-3.264;2023-02-11T03:57:46;101326.73;;;5.56;65.45
78064;BME280;67429;51.596;-3.264;2023-02-11T04:00:12;101330.57;;;5.97;63.31
78064;BME280;67429;51.596;-3.264;2023-02-11T04:02:37;101339.97;;;5.68;64.15
78064;BME280;67429;51.596;-3.264;2023-02-11T04:05:03;101340.71;;;6.24;62.48
78064;BME280;67429;51.596;-3.264;2023-02-11T04:07:28;101341.03;;;6.59;61.16
78064;BME280;67429;51.596;-3.264;2023-02-11T04:09:53;101353.78;;;6.11;62.13
78064;BME280;67429;51.596;-3.264;2023-02-11T04:12:19;101354.29;;;6.71;61.21
78064;BME280;67429;51.596;-3.264;2023-02-11T04:14:45;101350.46;;;6.75;60.01
78064;BME280;67429;51.596;-3.264;2023-02-11T04:17:11;101355.82;;;6.44;61.31
78064;BME280;67429;51.596;-3.264;2023-02-11T04:19:36;101351.09;;;6.96;60.88
78064;BME280;67429;51.596;-3.264;2023-02-11T04:22:02;101349.28;;;6.48;60.62
78064;BME280;67429;51.596;-3.264;2023-02-11T04:24:27;101349.87;;;6.62;60.99
78064;BME280;67429;51.596;-3.264;2023-02-11T04:26:53;101352.56;;;6.33;61.63
78064;BME280;67429;51.596;-3.264;2023-02-11T04:29:19;101348.98;;;6.32;61.27
78064;BME280;67429;51.596;-3.264;2023-02-11T04:31:44;101353.78;;;6.36;62.18
78064;BME280;67429;51.596;-3.264;2023-02-11T04:34:10;101348.75;;;6.12;62.72
78064;BME280;67429;51.596;-3.264;2023-02-11T04:36:35;101349.78;;;6.50;62.48
78064;BME280;67429;51.596;-3.264;2023-02-11T04:39:02;101354.41;;;6.58;62.61
78064;BME280;67429;51.596;-3.264;2023-02-11T04:41:26;101348.99;;;6.55;62.35
78064;BME280;67429;51.596;-3.264;2023-02-11T04:43:52;101351.52;;;5.96;65.30
78064;BME280;67429;51.596;-3.264;2023-02-11T04:46:18;101343.39;;;5.46;66.33
78064;BME280;67429;51.596;-3.264;2023-02-11T04:48:44;101331.57;;;5.55;66.82
78064;BME280;67429;51.596;-3.264;2023-02-11T04:51:09;101330.91;;;5.80;66.10
78064;BME280;67429;51.596;-3.264;2023-02-11T04:53:35;101331.94;;;5.18;66.91
78064;BME280;67429;51.596;-3.264;2023-02-11T04:56:00;101336.18;;;5.68;66.04
78064;BME280;67429;51.596;-3.264;2023-02-11T04:58:26;101341.90;;;5.43;66.56
78064;BME280;67429;51.596;-3.264;2023-02-11T05:00:52;101345.08;;;5.82;63.75
78064;BME280;67429;51.596;-3.264;2023-02-11T05:03:17;101345.78;;;6.15;62.15
78064;BME280;67429;51.596;-3.264;2023-02-11T05:05:44;101350.68;;;5.89;62.51
78064;BME280;67429;51.596;-3.264;2023-02-11T05:08:09;101351.82;;;5.95;62.22
78064;BME280;67429;51.596;-3.264;2023-02-11T05:10:35;101356.36;;;5.77;63.44
78064;BME280;67429;51.596;-3.264;2023-02-11T05:13:00;101362.09;;;5.60;63.15
78064;BME280;67429;51.596;-3.264;2023-02-11T05:15:26;101363.60;;;5.39;64.87
78064;BME280;67429;51.596;-3.264;2023-02-11T05:17:51;101367.53;;;6.27;61.95
78064;BME280;67429;51.596;-3.264;2023-02-11T05:20:17;101369.74;;;6.33;61.52
78064;BME280;67429;51.596;-3.264;2023-02-11T05:22:43;101375.21;;;6.19;61.87
78064;BME280;67429;51.596;-3.264;2023-02-11T05:25:08;101380.38;;;5.87;62.68
78064;BME280;67429;51.596;-3.264;2023-02-11T05:27:34;101378.88;;;6.70;61.03
78064;BME280;67429;51.596;-3.264;2023-02-11T05:30:00;101375.92;;;6.26;60.93
78064;BME280;67429;51.596;-3.264;2023-02-11T05:32:25;101372.62;;;6.66;60.76
78064;BME280;67429;51.596;-3.264;2023-02-11T05:34:51;101372.09;;;6.34;61.37
78064;BME280;67429;51.596;-3.264;2023-02-11T05:37:17;101372.08;;;6.23;61.86
78064;BME280;67429;51.596;-3.264;2023-02-11T05:39:42;101378.95;;;6.66;61.07
78064;BME280;67429;51.596;-3.264;2023-02-11T05:42:08;101383.27;;;6.42;60.55
78064;BME280;67429;51.596;-3.264;2023-02-11T05:44:33;101386.49;;;6.82;59.47
78064;BME280;67429;51.596;-3.264;2023-02-11T05:46:59;101389.17;;;6.56;60.24
78064;BME280;67429;51.596;-3.264;2023-02-11T05:49:25;101388.08;;;6.94;58.64
78064;BME280;67429;51.596;-3.264;2023-02-11T05:51:50;101387.63;;;7.30;58.15
78064;BME280;67429;51.596;-3.264;2023-02-11T05:54:16;101391.49;;;7.67;56.69
78064;BME280;67429;51.596;-3.264;2023-02-11T05:56:42;101391.25;;;7.55;56.73
78064;BME280;67429;51.596;-3.264;2023-02-11T05:59:08;101391.32;;;7.17;57.43
78064;BME280;67429;51.596;-3.264;2023-02-11T06:01:33;101393.58;;;7.53;56.96
78064;BME280;67429;51.596;-3.264;2023-02-11T06:03:59;101388.96;;;7.72;57.52
78064;BME280;67429;51.596;-3.264;2023-02-11T06:06:25;101384.43;;;6.75;58.75
78064;BME280;67429;51.596;-3.264;2023-02-11T06:08:50;101383.41;;;7.37;57.61
78064;BME280;67429;51.596;-3.264;2023-02-11T06:11:16;101379.15;;;8.25;55.02
78064;BME280;67429;51.596;-3.264;2023-02-11T06:13:41;101377.30;;;8.31;54.78
78064;BME280;67429;51.596;-3.264;2023-02-11T06:16:07;101375.81;;;8.26;55.99
78064;BME280;67429;51.596;-3.264;2023-02-11T06:18:33;101373.51;;;7.66;58.04
78064;BME280;67429;51.596;-3.264;2023-02-11T06:20:58;101374.09;;;7.39;57.84
78064;BME280;67429;51.596;-3.264;2023-02-11T06:23:24;101368.45;;;7.09;58.33
78064;BME280;67429;51.596;-3.264;2023-02-11T06:25:49;101369.28;;;7.17;58.22
78064;BME280;67429;51.596;-3.264;2023-02-11T06:28:15;101371.10;;;7.64;57.25
78064;BME280;67429;51.596;-3.264;2023-02-11T06:30:40;101375.41;;;7.31;59.13
78064;BME280;67429;51.596;-3.264;2023-02-11T06:33:06;101379.22;;;7.20;59.11
78064;BME280;67429;51.596;-3.264;2023-02-11T06:35:31;101386.46;;;7.30;59.23
78064;BME280;67429;51.596;-3.264;2023-02-11T06:37:57;101383.54;;;6.86;60.27
78064;BME280;67429;51.596;-3.264;2023-02-11T06:40:23;101382.61;;;7.47;59.00
78064;BME280;67429;51.596;-3.264;2023-02-11T06:42:48;101379.90;;;7.34;58.55
78064;BME280;67429;51.596;-3.264;2023-02-11T06:45:14;101379.15;;;7.05;58.42
78064;BME280;67429;51.596;-3.264;2023-02-11T06:47:40;101376.84;;;6.91;59.98
78064;BME280;67429;51.596;-3.264;2023-02-11T06:50:07;101381.17;;;7.15;58.73
78064;BME280;67429;51.596;-3.264;2023-02-11T06:52:31;101383.17;;;7.49;57.71
78064;BME280;67429;51.596;-3.264;2023-02-11T06:54:56;101383.05;;;7.88;56.32
78064;BME280;67429;51.596;-3.264;2023-02-11T06:57:22;101381.17;;;7.65;56.79
78064;BME280;67429;51.596;-3.264;2023-02-11T06:59:48;101381.27;;;7.71;56.47
78064;BME280;67429;51.596;-3.264;2023-02-11T07:02:13;101378.99;;;7.73;56.58
78064;BME280;67429;51.596;-3.264;2023-02-11T07:04:40;101387.15;;;7.95;55.50
78064;BME280;67429;51.596;-3.264;2023-02-11T07:07:05;101390.18;;;8.19;55.00
78064;BME280;67429;51.596;-3.264;2023-02-11T07:09:30;101396.79;;;8.72;53.66
78064;BME280;67429;51.596;-3.264;2023-02-11T07:11:56;101404.34;;;8.11;54.64
78064;BME280;67429;51.596;-3.264;2023-02-11T07:14:21;101401.27;;;9.08;52.46
78064;BME280;67429;51.596;-3.264;2023-02-11T07:16:47;101399.21;;;9.18;52.09
78064;BME280;67429;51.596;-3.264;2023-02-11T07:19:12;101396.25;;;9.13;52.86
78064;BME280;67429;51.596;-3.264;2023-02-11T07:21:38;101395.91;;;8.62;53.54
78064;BME280;67429;51.596;-3.264;2023-02-11T07:24:06;101398.07;;;8.71;53.68
78064;BME280;67429;51.596;-3.264;2023-02-11T07:26:29;101400.91;;;9.08;53.18
78064;BME280;67429;51.596;-3.264;2023-02-11T07:28:55;101403.35;;;8.87;53.56
78064;BME280;67429;51.596;-3.264;2023-02-11T07:31:22;101403.23;;;8.91;53.69
78064;BME280;67429;51.596;-3.264;2023-02-11T07:33:47;101409.95;;;9.32;52.83
78064;BME280;67429;51.596;-3.264;2023-02-11T07:36:13;101415.20;;;9.25;52.61
78064;BME280;67429;51.596;-3.264;2023-02-11T07:38:38;101420.35;;;9.09;53.41
78064;BME280;67429;51.596;-3.264;2023-02-11T07:41:05;101426.17;;;9.02;54.35
78064;BME280;67429;51.596;-3.264;2023-02-11T07:43:30;101423.40;;;8.56;54.52
78064;BME280;67429;51.596;-3.264;2023-02-11T07:45:54;101421.20;;;9.14;53.75
78064;BME280;67429;51.596;-3.264;2023-02-11T07:48:20;101422.88;;;9.63;53.34
78064;BME280;67429;51.596;-3.264;2023-02-11T07:50:45;101431.06;;;10.42;51.18
78064;BME280;67429;51.596;-3.264;2023-02-11T07:53:11;101434.56;;;10.77;50.04
78064;BME280;67429;51.596;-3.264;2023-02-11T07:55:37;101435.38;;;11.03;49.92
78064;BME280;67429;51.596;-3.264;2023-02-11T07:58:02;101440.34;;;9.74;51.35
78064;BME280;67429;51.596;-3.264;2023-02-11T08:00:28;101441.20;;;9.30;52.73
78064;BME280;67429;51.596;-3.264;2023-02-11T08:02:55;101445.79;;;9.99;51.54
78064;BME280;67429;51.596;-3.264;2023-02-11T08:05:19;101451.72;;;10.28;51.00
78064;BME280;67429;51.596;-3.264;2023-02-11T08:07:45;101456.25;;;10.36;50.88
78064;BME280;67429;51.596;-3.264;2023-02-11T08:10:10;101454.21;;;10.87;50.05
78064;BME280;67429;51.596;-3.264;2023-02-11T08:12:36;101453.48;;;11.33;49.26
78064;BME280;67429;51.596;-3.264;2023-02-11T08:15:02;101456.88;;;11.37;48.96
78064;BME280;67429;51.596;-3.264;2023-02-11T08:17:27;101457.16;;;10.88;48.99
78064;BME280;67429;51.596;-3.264;2023-02-11T08:19:52;101457.39;;;11.34;48.99
78064;BME280;67429;51.596;-3.264;2023-02-11T08:22:18;101457.34;;;11.07;49.33
78064;BME280;67429;51.596;-3.264;2023-02-11T08:24:44;101456.96;;;10.80;50.14
78064;BME280;67429;51.596;-3.264;2023-02-11T08:27:09;101464.08;;;10.92;50.46
78064;BME280;67429;51.596;-3.264;2023-02-11T08:29:35;101459.57;;;9.70;53.07
78064;BME280;67429;51.596;-3.264;2023-02-11T08:32:01;101463.82;;;10.31;51.45
78064;BME280;67429;51.596;-3.264;2023-02-11T08:34:26;101464.03;;;10.26;51.92
78064;BME280;67429;51.596;-3.264;2023-02-11T08:36:52;101463.82;;;8.96;54.01
78064;BME280;67429;51.596;-3.264;2023-02-11T08:39:20;101460.65;;;8.05;56.62
78064;BME280;67429;51.596;-3.264;2023-02-11T08:41:44;101462.96;;;9.34;54.05
78064;BME280;67429;51.596;-3.264;2023-02-11T08:44:09;101467.14;;;9.97;53.05
78064;BME280;67429;51.596;-3.264;2023-02-11T08:46:34;101472.36;;;9.55;52.85
78064;BME280;67429;51.596;-3.264;2023-02-11T08:49:00;101479.59;;;10.56;51.54
78064;BME280;67429;51.596;-3.264;2023-02-11T08:51:28;101477.26;;;11.01;50.34
78064;BME280;67429;51.596;-3.264;2023-02-11T08:53:51;101482.86;;;9.62;51.87
78064;BME280;67429;51.596;-3.264;2023-02-11T08:56:19;101485.68;;;11.02;50.60
78064;BME280;67429;51.596;-3.264;2023-02-11T08:58:43;101487.39;;;10.58;51.17
78064;BME280;67429;51.596;-3.264;2023-02-11T09:01:09;101487.97;;;10.29;51.20
78064;BME280;67429;51.596;-3.264;2023-02-11T09:03:32;101486.43;;;11.15;49.67
78064;BME280;67429;51.596;-3.264;2023-02-11T09:05:58;101485.81;;;11.49;49.57
78064;BME280;67429;51.596;-3.264;2023-02-11T09:08:24;101492.70;;;10.18;51.15
78064;BME280;67429;51.596;-3.264;2023-02-11T09:10:49;101488.18;;;10.24;51.56
78064;BME280;67429;51.596;-3.264;2023-02-11T09:13:15;101487.88;;;10.41;51.20
78064;BME280;67429;51.596;-3.264;2023-02-11T09:15:44;101486.43;;;10.64;51.45
78064;BME280;67429;51.596;-3.264;2023-02-11T09:18:06;101486.31;;;10.85;50.52
78064;BME280;67429;51.596;-3.264;2023-02-11T09:20:31;101483.87;;;9.21;53.61
78064;BME280;67429;51.596;-3.264;2023-02-11T09:22:57;101482.80;;;10.07;53.05
78064;BME280;67429;51.596;-3.264;2023-02-11T09:25:22;101477.80;;;9.95;52.64
78064;BME280;67429;51.596;-3.264;2023-02-11T09:27:48;101470.55;;;9.66;53.04
78064;BME280;67429;51.596;-3.264;2023-02-11T09:30:14;101466.53;;;9.30;54.83
78064;BME280;67429;51.596;-3.264;2023-02-11T09:32:39;101471.42;;;9.70;54.09
78064;BME280;67429;51.596;-3.264;2023-02-11T09:35:05;101477.45;;;10.66;52.08
78064;BME280;67429;51.596;-3.264;2023-02-11T09:37:30;101479.81;;;10.89;51.59
78064;BME280;67429;51.596;-3.264;2023-02-11T09:39:55;101478.37;;;10.89;50.89
78064;BME280;67429;51.596;-3.264;2023-02-11T09:42:36;101480.43;;;10.56;51.51
78064;BME280;67429;51.596;-3.264;2023-02-11T09:44:47;101478.96;;;9.97;52.28
78064;BME280;67429;51.596;-3.264;2023-02-11T09:47:22;101482.71;;;10.06;52.88
78064;BME280;67429;51.596;-3.264;2023-02-11T09:49:41;101483.21;;;9.27;54.27
78064;BME280;67429;51.596;-3.264;2023-02-11T09:52:06;101488.21;;;9.37;53.99
78064;BME280;67429;51.596;-3.264;2023-02-11T09:54:34;101489.72;;;9.47;54.24
78064;BME280;67429;51.596;-3.264;2023-02-11T09:56:54;101491.96;;;10.00;52.58
78064;BME280;67429;51.596;-3.264;2023-02-11T09:59:20;101499.02;;;10.66;51.50
78064;BME280;67429;51.596;-3.264;2023-02-11T10:01:49;101501.83;;;10.40;51.28
78064;BME280;67429;51.596;-3.264;2023-02-11T10:04:16;101500.28;;;11.04;50.19
78064;BME280;67429;51.596;-3.264;2023-02-11T10:06:40;101508.72;;;10.45;51.15
78064;BME280;67429;51.596;-3.264;2023-02-11T10:09:13;101512.29;;;10.74;51.88
78064;BME280;67429;51.596;-3.264;2023-02-11T10:11:32;101513.95;;;11.27;50.22
78064;BME280;67429;51.596;-3.264;2023-02-11T10:14:00;101522.56;;;10.84;50.99
78064;BME280;67429;51.596;-3.264;2023-02-11T10:16:29;101530.28;;;11.17;50.63
78064;BME280;67429;51.596;-3.264;2023-02-11T10:18:53;101530.38;;;11.27;50.44
78064;BME280;67429;51.596;-3.264;2023-02-11T10:21:17;101529.36;;;11.18;50.55
78064;BME280;67429;51.596;-3.264;2023-02-11T10:23:38;101532.30;;;10.76;51.62
78064;BME280;67429;51.596;-3.264;2023-02-11T10:26:01;101527.35;;;10.95;51.52
78064;BME280;67429;51.596;-3.264;2023-02-11T10:28:31;101529.90;;;11.15;51.46
78064;BME280;67429;51.596;-3.264;2023-02-11T10:30:56;101528.97;;;11.38;50.36
78064;BME280;67429;51.596;-3.264;2023-02-11T10:33:24;101532.67;;;10.72;51.40
78064;BME280;67429;51.596;-3.264;2023-02-11T10:35:43;101537.46;;;10.75;51.68
78064;BME280;67429;51.596;-3.264;2023-02-11T10:38:09;101537.55;;;10.23;53.54
78064;BME280;67429;51.596;-3.264;2023-02-11T10:40:34;101537.35;;;10.86;52.57
78064;BME280;67429;51.596;-3.264;2023-02-11T10:43:04;101532.89;;;9.83;53.99
78064;BME280;67429;51.596;-3.264;2023-02-11T10:45:31;101531.05;;;10.08;54.64
78064;BME280;67429;51.596;-3.264;2023-02-11T10:47:51;101535.49;;;11.73;51.15
78064;BME280;67429;51.596;-3.264;2023-02-11T10:50:20;101538.29;;;10.55;52.88
78064;BME280;67429;51.596;-3.264;2023-02-11T10:52:42;101538.11;;;9.26;55.28
78064;BME280;67429;51.596;-3.264;2023-02-11T10:55:15;101539.13;;;9.42;56.36
78064;BME280;67429;51.596;-3.264;2023-02-11T10:57:35;101539.43;;;10.12;54.08
78064;BME280;67429;51.596;-3.264;2023-02-11T11:00:05;101536.88;;;11.08;52.47
78064;BME280;67429;51.596;-3.264;2023-02-11T11:02:28;101532.78;;;10.31;52.61
78064;BME280;67429;51.596;-3.264;2023-02-11T11:04:55;101532.81;;;10.32;53.66
78064;BME280;67429;51.596;-3.264;2023-02-11T11:07:18;101542.43;;;11.05;51.83
78064;BME280;67429;51.596;-3.264;2023-02-11T11:09:46;101541.23;;;10.37;52.75
78064;BME280;67429;51.596;-3.264;2023-02-11T11:14:32;101533.97;;;10.56;52.16
78064;BME280;67429;51.596;-3.264;2023-02-11T11:16:58;101528.30;;;9.97;53.37
78064;BME280;67429;51.596;-3.264;2023-02-11T11:19:24;101529.84;;;9.79;55.07
78064;BME280;67429;51.596;-3.264;2023-02-11T11:21:50;101530.49;;;9.90;54.26
78064;BME280;67429;51.596;-3.264;2023-02-11T11:24:17;101532.00;;;10.11;53.45
78064;BME280;67429;51.596;-3.264;2023-02-11T11:26:42;101527.77;;;9.55;54.87
78064;BME280;67429;51.596;-3.264;2023-02-11T11:29:09;101523.85;;;10.07;54.51
78064;BME280;67429;51.596;-3.264;2023-02-11T11:31:35;101526.50;;;9.55;55.73
78064;BME280;67429;51.596;-3.264;2023-02-11T11:33:58;101528.27;;;9.75;55.86
78064;BME280;67429;51.596;-3.264;2023-02-11T11:36:30;101527.47;;;9.14;58.18
78064;BME280;67429;51.596;-3.264;2023-02-11T11:38:50;101528.10;;;10.01;54.93
78064;BME280;67429;51.596;-3.264;2023-02-11T11:41:16;101527.21;;;10.24;54.44
78064;BME280;67429;51.596;-3.264;2023-02-11T11:43:39;101525.23;;;10.58;53.51
78064;BME280;67429;51.596;-3.264;2023-02-11T11:46:04;101519.07;;;10.01;54.71
78064;BME280;67429;51.596;-3.264;2023-02-11T11:48:34;101514.52;;;9.49;56.01
78064;BME280;67429;51.596;-3.264;2023-02-11T11:50:57;101507.32;;;9.06;56.11
78064;BME280;67429;51.596;-3.264;2023-02-11T11:53:26;101508.80;;;9.69;55.26
78064;BME280;67429;51.596;-3.264;2023-02-11T11:55:50;101509.85;;;9.92;54.44
78064;BME280;67429;51.596;-3.264;2023-02-11T11:58:15;101505.82;;;11.84;51.62
78064;BME280;67429;51.596;-3.264;2023-02-11T12:00:46;101502.44;;;11.70;50.15
78064;BME280;67429;51.596;-3.264;2023-02-11T12:03:17;101502.35;;;11.76;50.44
78064;BME280;67429;51.596;-3.264;2023-02-11T12:05:35;101502.58;;;11.11;50.59
78064;BME280;67429;51.596;-3.264;2023-02-11T12:08:02;101501.71;;;11.39;49.59
78064;BME280;67429;51.596;-3.264;2023-02-11T12:10:30;101499.64;;;11.26;50.15
78064;BME280;67429;51.596;-3.264;2023-02-11T12:12:51;101503.31;;;10.72;50.82
78064;BME280;67429;51.596;-3.264;2023-02-11T12:15:22;101498.44;;;10.80;50.32
78064;BME280;67429;51.596;-3.264;2023-02-11T12:17:48;101496.93;;;10.47;52.46
78064;BME280;67429;51.596;-3.264;2023-02-11T12:20:16;101494.81;;;10.18;53.16
78064;BME280;67429;51.596;-3.264;2023-02-11T12:22:35;101497.37;;;10.27;53.48
78064;BME280;67429;51.596;-3.264;2023-02-11T12:25:05;101495.71;;;11.63;49.68
78064;BME280;67429;51.596;-3.264;2023-02-11T12:27:27;101498.03;;;11.41;50.23
78064;BME280;67429;51.596;-3.264;2023-02-11T12:29:55;101496.26;;;11.20;51.70
78064;BME280;67429;51.596;-3.264;2023-02-11T12:32:19;101488.89;;;10.79;51.01
78064;BME280;67429;51.596;-3.264;2023-02-11T12:34:46;101481.80;;;11.66;50.05
78064;BME280;67429;51.596;-3.264;2023-02-11T12:37:05;101478.90;;;12.09;48.83
78064;BME280;67429;51.596;-3.264;2023-02-11T12:39:34;101474.61;;;11.70;49.52
78064;BME280;67429;51.596;-3.264;2023-02-11T12:42:02;101471.93;;;11.74;49.97
78064;BME280;67429;51.596;-3.264;2023-02-11T12:44:24;101463.19;;;11.13;49.60